createdAt,value
2018-03-06T00:00:30.953Z,23.10
2018-03-06T00:01:31.185Z,23.18
2018-03-06T00:02:31.427Z,23.09
2018-03-06T00:03:31.666Z,23.09
2018-03-06T00:04:31.904Z,23.08
2018-03-06T00:05:32.151Z,23.09
2018-03-06T00:06:32.394Z,23.21
2018-03-06T00:07:32.639Z,23.18
2018-03-06T00:08:32.872Z,23.09
2018-03-06T00:09:33.115Z,23.10
2018-03-06T00:10:33.355Z,23.17
2018-03-06T00:11:33.593Z,23.09
2018-03-06T00:12:33.851Z,23.15
2018-03-06T00:13:34.088Z,23.18
2018-03-06T00:14:34.327Z,23.18
2018-03-06T00:15:34.570Z,23.12
2018-03-06T00:16:34.817Z,23.13
2018-03-06T00:17:35.063Z,23.15
2018-03-06T00:18:35.296Z,23.09
2018-03-06T00:19:35.537Z,23.12
2018-03-06T00:20:35.777Z,23.06
2018-03-06T00:21:36.015Z,23.17
2018-03-06T00:22:36.257Z,23.06
2018-03-06T00:23:36.505Z,23.17
2018-03-06T00:24:36.750Z,23.10
2018-03-06T00:25:36.983Z,23.08
2018-03-06T00:26:37.231Z,23.21
2018-03-06T00:27:37.455Z,23.13
2018-03-06T00:28:37.700Z,23.10
2018-03-06T00:29:37.937Z,23.18
2018-03-06T00:30:38.173Z,23.13
2018-03-06T00:31:38.414Z,23.13
2018-03-06T00:32:38.653Z,23.15
2018-03-06T00:33:38.895Z,23.06
2018-03-06T00:34:39.139Z,22.98
2018-03-06T00:35:39.386Z,23.03
2018-03-06T00:36:39.618Z,23.12
2018-03-06T00:37:39.859Z,23.10
2018-03-06T00:38:40.100Z,23.03
2018-03-06T00:39:40.338Z,23.08
2018-03-06T00:40:40.581Z,23.10
2018-03-06T00:41:40.828Z,23.06
2018-03-06T00:42:41.072Z,23.10
2018-03-06T00:43:41.305Z,23.10
2018-03-06T00:44:49.522Z,23.12
2018-03-06T00:45:49.093Z,23.13
2018-03-06T00:46:49.349Z,23.09
2018-03-06T00:47:42.470Z,23.09
2018-03-06T00:48:42.717Z,23.10
2018-03-06T00:49:42.963Z,23.06
2018-03-06T00:50:43.193Z,23.13
2018-03-06T00:51:43.435Z,23.12
2018-03-06T00:52:43.675Z,23.15
2018-03-06T00:53:51.256Z,23.18
2018-03-06T00:54:51.498Z,23.12
2018-03-06T00:55:44.392Z,23.13
2018-03-06T00:56:44.636Z,23.03
2018-03-06T00:57:44.872Z,23.15
2018-03-06T00:58:45.114Z,23.08
2018-03-06T00:59:45.354Z,23.08
2018-03-06T01:00:45.600Z,23.08
2018-03-06T01:01:45.836Z,23.10
2018-03-06T01:02:46.075Z,23.05
2018-03-06T01:03:46.317Z,23.05
2018-03-06T01:04:46.558Z,23.10
2018-03-06T01:05:46.799Z,23.09
2018-03-06T01:06:47.040Z,23.09
2018-03-06T01:07:47.284Z,23.00
2018-03-06T01:08:47.517Z,23.09
2018-03-06T01:09:47.758Z,23.08
2018-03-06T01:10:47.996Z,23.03
2018-03-06T01:11:48.234Z,23.03
2018-03-06T01:12:48.478Z,23.10
2018-03-06T01:13:48.726Z,23.13
2018-03-06T01:14:48.973Z,23.03
2018-03-06T01:15:49.204Z,23.12
2018-03-06T01:16:49.445Z,23.08
2018-03-06T01:17:49.686Z,23.10
2018-03-06T01:18:49.925Z,23.10
2018-03-06T01:19:50.167Z,22.98
2018-03-06T01:20:50.415Z,22.98
2018-03-06T01:21:50.658Z,23.03
2018-03-06T01:22:50.894Z,23.03
2018-03-06T01:23:51.133Z,23.09
2018-03-06T01:24:51.374Z,23.06
2018-03-06T01:25:51.619Z,23.06
2018-03-06T01:26:51.856Z,23.08
2018-03-06T01:27:52.099Z,23.03
2018-03-06T01:28:52.344Z,23.12
2018-03-06T01:29:52.578Z,23.05
2018-03-06T01:30:52.818Z,23.10
2018-03-06T01:31:53.059Z,23.12
2018-03-06T01:32:53.297Z,23.00
2018-03-06T01:33:53.540Z,23.08
2018-03-06T01:34:53.787Z,23.03
2018-03-06T01:35:54.031Z,23.06
2018-03-06T01:36:54.263Z,23.08
2018-03-06T01:37:54.503Z,23.17
2018-03-06T01:38:54.744Z,23.09
2018-03-06T01:39:54.983Z,23.05
2018-03-06T01:40:55.224Z,23.06
2018-03-06T01:41:55.472Z,23.10
2018-03-06T01:42:55.717Z,23.00
2018-03-06T01:43:55.949Z,23.03
2018-03-06T01:44:56.190Z,22.99
2018-03-06T01:45:56.442Z,23.09
2018-03-06T01:46:56.667Z,22.98
2018-03-06T01:47:56.902Z,23.08
2018-03-06T01:48:57.141Z,22.99
2018-03-06T01:49:57.383Z,23.09
2018-03-06T01:50:57.618Z,23.06
2018-03-06T01:51:57.866Z,23.00
2018-03-06T01:52:58.106Z,22.96
2018-03-06T01:53:58.351Z,23.00
2018-03-06T01:54:58.585Z,23.05
2018-03-06T01:55:58.829Z,23.10
2018-03-06T01:56:59.063Z,22.96
2018-03-06T01:57:59.302Z,23.08
2018-03-06T01:58:59.544Z,23.08
2018-03-06T01:59:59.851Z,23.12
2018-03-06T02:01:00.043Z,23.05
2018-03-06T02:02:00.269Z,23.00
2018-03-06T02:03:00.509Z,22.98
2018-03-06T02:04:00.751Z,23.09
2018-03-06T02:05:00.991Z,23.08
2018-03-06T02:06:01.235Z,23.09
2018-03-06T02:07:01.480Z,23.10
2018-03-06T02:08:01.726Z,23.00
2018-03-06T02:09:01.961Z,23.12
2018-03-06T02:10:02.197Z,23.12
2018-03-06T02:11:02.438Z,23.08
2018-03-06T02:12:02.677Z,23.00
2018-03-06T02:13:02.920Z,23.12
2018-03-06T02:14:03.166Z,23.06
2018-03-06T02:15:03.411Z,23.13
2018-03-06T02:16:03.643Z,23.03
2018-03-06T02:17:03.883Z,23.13
2018-03-06T02:18:04.124Z,22.99
2018-03-06T02:19:04.364Z,23.06
2018-03-06T02:20:04.605Z,23.03
2018-03-06T02:21:04.852Z,23.08
2018-03-06T02:22:05.098Z,22.98
2018-03-06T02:23:05.330Z,23.06
2018-03-06T02:24:05.571Z,23.10
2018-03-06T02:25:05.835Z,23.13
2018-03-06T02:26:06.072Z,23.09
2018-03-06T02:27:06.310Z,23.02
2018-03-06T02:28:06.552Z,23.09
2018-03-06T02:29:06.788Z,23.08
2018-03-06T02:30:07.033Z,23.08
2018-03-06T02:31:07.278Z,23.05
2018-03-06T02:32:07.522Z,22.96
2018-03-06T02:33:07.754Z,23.08
2018-03-06T02:34:07.994Z,23.08
2018-03-06T02:35:08.234Z,22.98
2018-03-06T02:36:08.472Z,23.06
2018-03-06T02:37:08.715Z,23.05
2018-03-06T02:38:08.962Z,23.06
2018-03-06T02:39:09.207Z,23.05
2018-03-06T02:40:09.440Z,23.10
2018-03-06T02:41:09.684Z,23.03
2018-03-06T02:42:09.923Z,23.10
2018-03-06T02:43:10.158Z,23.06
2018-03-06T02:44:10.406Z,23.05
2018-03-06T02:45:10.637Z,22.98
2018-03-06T02:46:10.880Z,23.08
2018-03-06T02:47:11.171Z,22.98
2018-03-06T02:48:11.360Z,23.00
2018-03-06T02:49:11.600Z,23.08
2018-03-06T02:50:11.843Z,23.12
2018-03-06T02:51:12.080Z,23.08
2018-03-06T02:52:12.320Z,22.98
2018-03-06T02:53:12.560Z,23.03
2018-03-06T02:54:12.796Z,23.10
2018-03-06T02:55:13.042Z,23.03
2018-03-06T02:56:13.284Z,23.08
2018-03-06T02:57:13.529Z,23.06
2018-03-06T02:58:13.763Z,23.00
2018-03-06T02:59:14.003Z,23.05
2018-03-06T03:00:14.243Z,23.12
2018-03-06T03:01:14.485Z,23.05
2018-03-06T03:02:14.724Z,23.05
2018-03-06T03:03:14.969Z,23.02
2018-03-06T03:04:15.216Z,22.99
2018-03-06T03:05:15.448Z,23.06
2018-03-06T03:06:15.689Z,23.10
2018-03-06T03:07:15.932Z,23.03
2018-03-06T03:08:16.172Z,23.09
2018-03-06T03:09:16.411Z,23.02
2018-03-06T03:10:16.658Z,23.12
2018-03-06T03:11:16.903Z,23.03
2018-03-06T03:12:17.136Z,23.13
2018-03-06T03:13:17.376Z,23.03
2018-03-06T03:14:17.618Z,23.05
2018-03-06T03:15:17.853Z,23.08
2018-03-06T03:16:18.099Z,22.98
2018-03-06T03:17:18.344Z,23.05
2018-03-06T03:18:18.588Z,23.08
2018-03-06T03:19:18.823Z,23.12
2018-03-06T03:20:19.061Z,23.08
2018-03-06T03:21:19.302Z,23.00
2018-03-06T03:22:19.541Z,23.02
2018-03-06T03:23:19.784Z,23.02
2018-03-06T03:24:20.029Z,22.99
2018-03-06T03:25:20.277Z,23.02
2018-03-06T03:26:20.509Z,23.06
2018-03-06T03:27:20.750Z,23.00
2018-03-06T03:28:20.989Z,23.00
2018-03-06T03:29:21.230Z,23.03
2018-03-06T03:30:21.472Z,23.09
2018-03-06T03:31:21.709Z,23.05
2018-03-06T03:32:29.075Z,23.06
2018-03-06T03:33:29.692Z,23.05
2018-03-06T03:34:29.726Z,23.06
2018-03-06T03:35:29.984Z,22.96
2018-03-06T03:36:30.241Z,23.02
2018-03-06T03:37:30.500Z,23.05
2018-03-06T03:38:30.760Z,23.03
2018-03-06T03:39:31.026Z,23.08
2018-03-06T03:40:24.154Z,23.10
2018-03-06T03:42:55.958Z,22.99
2018-03-06T03:43:56.205Z,23.10
2018-03-06T03:44:56.444Z,22.99
2018-03-06T03:45:56.674Z,23.05
2018-03-06T03:46:56.914Z,23.02
2018-03-06T03:47:57.153Z,23.00
2018-03-06T03:48:57.400Z,22.98
2018-03-06T03:49:57.631Z,23.08
2018-03-06T03:50:57.871Z,23.02
2018-03-06T03:51:58.111Z,23.06
2018-03-06T03:52:58.349Z,23.02
2018-03-06T03:53:58.591Z,23.00
2018-03-06T03:54:58.839Z,23.03
2018-03-06T03:55:59.078Z,23.05
2018-03-06T03:56:59.314Z,22.98
2018-03-06T03:57:59.556Z,23.00
2018-03-06T03:58:59.796Z,23.03
2018-03-06T04:00:00.041Z,23.12
2018-03-06T04:01:00.273Z,22.99
2018-03-06T04:02:00.514Z,23.03
2018-03-06T04:03:00.753Z,23.00
2018-03-06T04:04:01.001Z,23.03
2018-03-06T04:05:01.238Z,23.03
2018-03-06T04:06:01.476Z,23.09
2018-03-06T04:07:01.725Z,23.12
2018-03-06T04:08:01.956Z,23.08
2018-03-06T04:09:02.198Z,22.99
2018-03-06T04:10:02.436Z,23.09
2018-03-06T04:11:02.678Z,23.13
2018-03-06T04:12:02.918Z,22.98
2018-03-06T04:13:03.162Z,23.00
2018-03-06T04:14:03.409Z,23.00
2018-03-06T04:15:03.644Z,22.98
2018-03-06T04:16:03.880Z,23.02
2018-03-06T04:17:04.119Z,23.09
2018-03-06T04:18:04.357Z,22.99
2018-03-06T04:19:04.600Z,22.98
2018-03-06T04:20:04.847Z,23.05
2018-03-06T04:21:05.094Z,23.06
2018-03-06T04:22:05.324Z,23.00
2018-03-06T04:23:05.564Z,23.09
2018-03-06T04:24:05.805Z,23.05
2018-03-06T04:25:06.045Z,23.02
2018-03-06T04:26:06.284Z,23.02
2018-03-06T04:27:06.530Z,23.12
2018-03-06T04:28:06.758Z,23.02
2018-03-06T04:29:06.996Z,23.06
2018-03-06T04:30:07.236Z,23.08
2018-03-06T04:31:07.489Z,23.17
2018-03-06T04:32:07.730Z,23.06
2018-03-06T04:33:07.963Z,22.98
2018-03-06T04:34:08.202Z,23.03
2018-03-06T04:35:08.443Z,23.03
2018-03-06T04:36:08.686Z,23.09
2018-03-06T04:37:08.924Z,22.99
2018-03-06T04:38:09.173Z,23.05
2018-03-06T04:39:09.409Z,23.06
2018-03-06T04:40:09.646Z,23.03
2018-03-06T04:41:09.886Z,23.03
2018-03-06T04:42:10.136Z,23.10
2018-03-06T04:43:10.351Z,23.02
2018-03-06T04:44:10.591Z,23.10
2018-03-06T04:45:10.839Z,23.03
2018-03-06T04:46:11.069Z,23.05
2018-03-06T04:47:11.314Z,23.02
2018-03-06T04:48:11.547Z,23.06
2018-03-06T04:49:11.786Z,23.05
2018-03-06T04:50:12.027Z,23.06
2018-03-06T04:51:12.263Z,23.10
2018-03-06T04:52:12.506Z,23.02
2018-03-06T04:53:12.754Z,23.09
2018-03-06T04:54:13.000Z,23.05
2018-03-06T04:55:13.231Z,23.03
2018-03-06T04:56:13.472Z,23.17
2018-03-06T04:57:13.713Z,23.02
2018-03-06T04:58:13.950Z,23.12
2018-03-06T04:59:14.193Z,23.03
2018-03-06T05:00:14.439Z,23.12
2018-03-06T05:01:14.680Z,23.09
2018-03-06T05:02:14.918Z,22.98
2018-03-06T05:03:15.158Z,23.00
2018-03-06T05:04:15.398Z,23.09
2018-03-06T05:05:15.636Z,23.00
2018-03-06T05:06:15.879Z,23.03
2018-03-06T05:07:16.126Z,23.05
2018-03-06T05:08:16.367Z,23.03
2018-03-06T05:09:16.603Z,23.00
2018-03-06T05:10:16.844Z,23.06
2018-03-06T05:11:17.084Z,23.10
2018-03-06T05:12:17.322Z,23.03
2018-03-06T05:13:17.564Z,23.03
2018-03-06T05:14:17.805Z,23.10
2018-03-06T05:15:18.043Z,23.18
2018-03-06T05:16:18.285Z,23.09
2018-03-06T05:17:18.525Z,23.13
2018-03-06T05:18:18.767Z,23.15
2018-03-06T05:19:19.009Z,23.09
2018-03-06T05:20:19.249Z,23.09
2018-03-06T05:21:19.496Z,23.15
2018-03-06T05:22:19.727Z,23.13
2018-03-06T05:23:19.968Z,23.08
2018-03-06T05:24:20.207Z,23.12
2018-03-06T05:25:20.450Z,23.23
2018-03-06T05:26:20.697Z,23.13
2018-03-06T05:27:20.928Z,23.17
2018-03-06T05:28:21.170Z,23.20
2018-03-06T05:29:21.413Z,23.24
2018-03-06T05:30:21.648Z,23.24
2018-03-06T05:31:21.890Z,23.21
2018-03-06T05:32:22.136Z,23.23
2018-03-06T05:33:22.381Z,23.20
2018-03-06T05:34:22.615Z,23.24
2018-03-06T05:35:22.855Z,23.21
2018-03-06T05:36:23.099Z,23.23
2018-03-06T05:37:23.333Z,23.24
2018-03-06T05:38:23.576Z,23.25
2018-03-06T05:39:23.822Z,23.23
2018-03-06T05:40:24.068Z,23.27
2018-03-06T05:41:24.301Z,23.25
2018-03-06T05:42:24.541Z,23.21
2018-03-06T05:44:56.346Z,23.24
2018-03-06T05:45:56.580Z,23.31
2018-03-06T05:46:56.820Z,23.27
2018-03-06T05:47:57.060Z,23.21
2018-03-06T05:48:57.302Z,23.31
2018-03-06T05:49:57.538Z,23.28
2018-03-06T05:50:57.778Z,23.25
2018-03-06T05:51:58.018Z,23.27
2018-03-06T05:52:58.264Z,23.31
2018-03-06T05:53:58.500Z,23.28
2018-03-06T05:54:58.741Z,23.28
2018-03-06T05:55:58.987Z,23.20
2018-03-06T05:56:59.218Z,23.24
2018-03-06T05:57:59.459Z,23.20
2018-03-06T05:58:59.699Z,23.21
2018-03-06T05:59:59.937Z,23.25
2018-03-06T06:01:00.185Z,23.28
2018-03-06T06:02:00.426Z,23.28
2018-03-06T06:03:00.673Z,23.25
2018-03-06T06:04:00.905Z,23.32
2018-03-06T06:05:01.144Z,23.25
2018-03-06T06:06:01.388Z,23.23
2018-03-06T06:07:01.623Z,23.27
2018-03-06T06:08:01.859Z,23.24
2018-03-06T06:09:02.100Z,23.25
2018-03-06T06:10:02.340Z,23.31
2018-03-06T06:11:02.582Z,23.28
2018-03-06T06:12:02.818Z,23.25
2018-03-06T06:13:03.063Z,23.23
2018-03-06T06:14:03.308Z,23.27
2018-03-06T06:15:03.545Z,23.31
2018-03-06T06:16:03.781Z,23.23
2018-03-06T06:17:04.024Z,23.20
2018-03-06T06:18:04.262Z,23.28
2018-03-06T06:19:04.507Z,23.27
2018-03-06T06:20:11.868Z,23.23
2018-03-06T06:21:12.128Z,23.24
2018-03-06T06:22:12.378Z,23.24
2018-03-06T06:23:12.638Z,23.23
2018-03-06T06:24:11.934Z,23.20
2018-03-06T06:25:05.980Z,23.21
2018-03-06T06:26:06.225Z,23.27
2018-03-06T06:27:06.459Z,23.25
2018-03-06T06:28:06.704Z,23.28
2018-03-06T06:29:06.945Z,23.32
2018-03-06T06:30:07.185Z,23.34
2018-03-06T06:31:07.426Z,23.21
2018-03-06T06:32:07.665Z,23.23
2018-03-06T06:33:07.912Z,23.25
2018-03-06T06:34:08.159Z,23.31
2018-03-06T06:35:08.390Z,23.20
2018-03-06T06:36:08.629Z,23.25
2018-03-06T06:37:08.869Z,23.23
2018-03-06T06:38:09.107Z,23.31
2018-03-06T06:39:09.352Z,23.21
2018-03-06T06:40:09.595Z,23.21
2018-03-06T06:41:09.843Z,23.20
2018-03-06T06:42:10.074Z,23.23
2018-03-06T06:43:10.313Z,23.23
2018-03-06T06:44:10.554Z,23.23
2018-03-06T06:45:10.791Z,23.32
2018-03-06T06:46:11.035Z,23.34
2018-03-06T06:47:11.281Z,23.23
2018-03-06T06:48:11.524Z,23.21
2018-03-06T06:49:11.761Z,23.21
2018-03-06T06:50:11.999Z,23.17
2018-03-06T06:51:12.230Z,23.34
2018-03-06T06:52:12.478Z,23.24
2018-03-06T06:53:12.720Z,23.27
2018-03-06T06:54:12.960Z,23.27
2018-03-06T06:55:13.200Z,23.23
2018-03-06T06:56:13.437Z,23.28
2018-03-06T06:57:13.669Z,23.21
2018-03-06T06:58:13.932Z,23.25
2018-03-06T06:59:14.168Z,23.28
2018-03-06T07:00:14.411Z,23.32
2018-03-06T07:01:14.657Z,23.28
2018-03-06T07:02:14.906Z,23.32
2018-03-06T07:03:15.135Z,23.24
2018-03-06T07:04:15.375Z,23.27
2018-03-06T07:05:15.616Z,23.25
2018-03-06T07:06:15.858Z,23.28
2018-03-06T07:07:16.090Z,23.34
2018-03-06T07:08:16.332Z,23.28
2018-03-06T07:09:16.569Z,23.21
2018-03-06T07:10:17.006Z,23.27
2018-03-06T07:11:17.043Z,23.32
2018-03-06T07:12:17.289Z,23.32
2018-03-06T07:13:17.553Z,23.27
2018-03-06T07:14:17.771Z,23.27
2018-03-06T07:15:18.008Z,23.24
2018-03-06T07:16:18.249Z,23.24
2018-03-06T07:17:18.491Z,23.27
2018-03-06T07:18:18.727Z,23.28
2018-03-06T07:19:18.969Z,23.28
2018-03-06T07:20:19.209Z,23.34
2018-03-06T07:21:19.452Z,23.28
2018-03-06T07:22:19.690Z,23.28
2018-03-06T07:23:19.934Z,23.32
2018-03-06T07:24:20.176Z,23.23
2018-03-06T07:25:20.407Z,23.27
2018-03-06T07:26:20.648Z,23.34
2018-03-06T07:27:20.889Z,23.28
2018-03-06T07:28:21.126Z,23.31
2018-03-06T07:29:21.370Z,23.28
2018-03-06T07:30:21.614Z,23.24
2018-03-06T07:31:21.859Z,23.34
2018-03-06T07:32:22.093Z,23.31
2018-03-06T07:33:22.333Z,23.32
2018-03-06T07:34:22.589Z,23.32
2018-03-06T07:35:22.822Z,23.32
2018-03-06T07:36:23.060Z,23.32
2018-03-06T07:37:23.320Z,23.32
2018-03-06T07:38:23.548Z,23.32
2018-03-06T07:39:23.779Z,23.31
2018-03-06T07:40:24.020Z,23.36
2018-03-06T07:41:24.261Z,23.34
2018-03-06T07:42:24.498Z,23.34
2018-03-06T07:43:24.740Z,23.24
2018-03-06T07:44:24.986Z,23.28
2018-03-06T07:45:25.255Z,23.27
2018-03-06T07:46:25.465Z,23.25
2018-03-06T07:47:25.704Z,23.32
2018-03-06T07:48:25.944Z,23.23
2018-03-06T07:49:26.191Z,23.28
2018-03-06T07:50:26.427Z,23.34
2018-03-06T07:51:26.673Z,23.31
2018-03-06T07:52:26.918Z,23.31
2018-03-06T07:53:27.164Z,23.24
2018-03-06T07:54:27.376Z,23.32
2018-03-06T07:55:27.622Z,23.31
2018-03-06T07:56:27.868Z,23.23
2018-03-06T07:57:28.100Z,23.28
2018-03-06T07:58:28.341Z,23.23
2018-03-06T07:59:28.581Z,23.34
2018-03-06T08:00:28.822Z,23.31
2018-03-06T08:01:29.063Z,23.31
2018-03-06T08:02:29.320Z,23.28
2018-03-06T08:03:29.552Z,23.32
2018-03-06T08:04:29.790Z,23.36
2018-03-06T08:05:30.018Z,23.28
2018-03-06T08:06:30.274Z,23.27
2018-03-06T08:07:30.504Z,23.27
2018-03-06T08:08:30.737Z,23.27
2018-03-06T08:09:30.979Z,23.25
2018-03-06T08:10:31.218Z,23.28
2018-03-06T08:11:31.457Z,23.24
2018-03-06T08:12:31.708Z,23.27
2018-03-06T08:13:31.945Z,23.25
2018-03-06T08:14:32.190Z,23.27
2018-03-06T08:15:32.427Z,23.23
2018-03-06T08:16:32.663Z,23.27
2018-03-06T08:17:32.903Z,23.34
2018-03-06T08:18:33.142Z,23.28
2018-03-06T08:19:33.384Z,23.28
2018-03-06T08:20:33.630Z,23.24
2018-03-06T08:21:33.875Z,23.34
2018-03-06T08:22:34.115Z,23.28
2018-03-06T08:23:34.346Z,23.43
2018-03-06T08:24:34.592Z,23.27
2018-03-06T08:25:34.829Z,23.25
2018-03-06T08:26:35.064Z,23.27
2018-03-06T08:27:35.303Z,23.32
2018-03-06T08:28:35.544Z,23.32
2018-03-06T08:29:35.783Z,23.37
2018-03-06T08:30:36.028Z,23.37
2018-03-06T08:31:36.270Z,23.25
2018-03-06T08:32:36.511Z,23.36
2018-03-06T08:33:36.744Z,23.21
2018-03-06T08:34:46.002Z,23.34
2018-03-06T08:35:37.224Z,23.28
2018-03-06T08:36:37.468Z,23.25
2018-03-06T08:37:37.702Z,23.21
2018-03-06T08:38:37.939Z,23.25
2018-03-06T08:39:38.183Z,23.31
2018-03-06T08:40:38.424Z,23.34
2018-03-06T08:41:38.666Z,23.31
2018-03-06T08:42:38.903Z,23.34
2018-03-06T08:43:39.147Z,23.28
2018-03-06T08:44:39.382Z,23.28
2018-03-06T08:45:39.624Z,23.25
2018-03-06T08:46:39.864Z,23.28
2018-03-06T08:47:40.102Z,23.34
2018-03-06T08:48:40.346Z,23.37
2018-03-06T08:49:40.587Z,23.31
2018-03-06T08:50:40.834Z,23.39
2018-03-06T08:51:41.063Z,23.36
2018-03-06T08:52:41.306Z,23.50
2018-03-06T08:53:41.548Z,23.43
2018-03-06T08:54:41.787Z,23.36
2018-03-06T08:55:42.027Z,23.31
2018-03-06T08:56:42.277Z,23.32
2018-03-06T08:57:42.572Z,23.34
2018-03-06T08:58:42.753Z,23.32
2018-03-06T08:59:42.995Z,23.36
2018-03-06T09:00:43.236Z,23.28
2018-03-06T09:01:43.475Z,23.34
2018-03-06T09:02:43.719Z,23.36
2018-03-06T09:03:43.960Z,23.34
2018-03-06T09:04:44.208Z,23.37
2018-03-06T09:05:44.441Z,23.36
2018-03-06T09:06:52.011Z,23.37
2018-03-06T09:07:44.910Z,23.32
2018-03-06T09:08:52.307Z,23.31
2018-03-06T09:09:52.574Z,23.40
2018-03-06T09:10:52.875Z,23.32
2018-03-06T09:11:53.338Z,23.34
2018-03-06T09:12:52.453Z,23.34
2018-03-06T09:13:46.498Z,23.34
2018-03-06T09:14:46.739Z,23.41
2018-03-06T09:15:46.979Z,23.34
2018-03-06T09:16:47.225Z,23.34
2018-03-06T09:17:47.484Z,23.40
2018-03-06T09:18:47.701Z,23.44
2018-03-06T09:19:47.942Z,23.39
2018-03-06T09:20:48.183Z,23.41
2018-03-06T09:21:48.419Z,23.36
2018-03-06T09:22:48.661Z,23.43
2018-03-06T09:23:48.900Z,23.47
2018-03-06T09:24:49.139Z,23.39
2018-03-06T09:25:49.378Z,23.47
2018-03-06T09:26:49.618Z,23.46
2018-03-06T09:27:49.859Z,23.47
2018-03-06T09:28:50.106Z,23.40
2018-03-06T09:29:50.338Z,23.37
2018-03-06T09:30:50.618Z,23.37
2018-03-06T09:31:50.827Z,23.44
2018-03-06T09:32:51.067Z,23.39
2018-03-06T09:33:51.306Z,23.47
2018-03-06T09:34:51.546Z,23.46
2018-03-06T09:35:51.792Z,23.47
2018-03-06T09:36:52.026Z,23.41
2018-03-06T09:37:52.265Z,23.47
2018-03-06T09:38:52.506Z,23.48
2018-03-06T09:39:52.745Z,23.47
2018-03-06T09:40:52.987Z,23.47
2018-03-06T09:41:53.233Z,23.44
2018-03-06T09:42:53.478Z,23.44
2018-03-06T09:43:53.709Z,23.46
2018-03-06T09:44:53.948Z,23.46
2018-03-06T09:45:54.190Z,23.47
2018-03-06T09:46:54.430Z,23.44
2018-03-06T09:47:54.671Z,23.47
2018-03-06T09:48:54.920Z,23.43
2018-03-06T09:49:55.165Z,23.47
2018-03-06T09:50:55.397Z,23.43
2018-03-06T09:51:55.638Z,23.50
2018-03-06T09:52:55.878Z,23.47
2018-03-06T09:53:56.118Z,23.43
2018-03-06T09:54:56.360Z,23.43
2018-03-06T09:55:56.606Z,23.43
2018-03-06T09:56:57.147Z,23.46
2018-03-06T09:57:57.085Z,23.47
2018-03-06T09:58:57.325Z,23.40
2018-03-06T09:59:57.567Z,23.41
2018-03-06T10:00:57.804Z,23.46
2018-03-06T10:01:58.042Z,23.44
2018-03-06T10:02:58.304Z,23.40
2018-03-06T10:03:58.529Z,23.46
2018-03-06T10:04:58.768Z,23.46
2018-03-06T10:05:59.010Z,23.43
2018-03-06T10:06:59.250Z,23.43
2018-03-06T10:07:59.494Z,23.47
2018-03-06T10:08:59.729Z,23.44
2018-03-06T10:09:59.966Z,23.47
2018-03-06T10:11:00.206Z,23.43
2018-03-06T10:12:00.447Z,23.39
2018-03-06T10:13:00.688Z,23.47
2018-03-06T10:14:00.930Z,23.46
2018-03-06T10:15:01.173Z,23.43
2018-03-06T10:16:01.409Z,23.41
2018-03-06T10:17:01.658Z,23.51
2018-03-06T10:18:01.877Z,23.44
2018-03-06T10:19:02.123Z,23.46
2018-03-06T10:20:02.360Z,23.43
2018-03-06T10:21:02.597Z,23.46
2018-03-06T10:22:02.839Z,23.47
2018-03-06T10:23:03.078Z,23.44
2018-03-06T10:24:03.318Z,23.43
2018-03-06T10:25:03.566Z,23.46
2018-03-06T10:26:03.815Z,23.46
2018-03-06T10:27:04.044Z,23.40
2018-03-06T10:28:04.290Z,23.44
2018-03-06T10:29:04.523Z,23.43
2018-03-06T10:30:04.763Z,23.44
2018-03-06T10:31:05.008Z,23.47
2018-03-06T10:32:05.253Z,23.44
2018-03-06T10:33:05.495Z,23.44
2018-03-06T10:34:05.732Z,23.51
2018-03-06T10:35:05.969Z,23.43
2018-03-06T10:36:06.210Z,23.47
2018-03-06T10:37:06.447Z,23.41
2018-03-06T10:38:06.688Z,23.46
2018-03-06T10:39:06.937Z,23.41
2018-03-06T10:40:07.181Z,23.47
2018-03-06T10:41:07.414Z,23.48
2018-03-06T10:42:07.654Z,23.43
2018-03-06T10:43:07.906Z,23.40
2018-03-06T10:44:08.131Z,23.47
2018-03-06T10:45:08.373Z,23.43
2018-03-06T10:46:08.621Z,23.46
2018-03-06T10:47:08.868Z,23.46
2018-03-06T10:48:09.099Z,23.44
2018-03-06T10:49:09.340Z,23.46
2018-03-06T10:50:09.581Z,23.40
2018-03-06T10:51:09.818Z,23.47
2018-03-06T10:52:10.060Z,23.47
2018-03-06T10:53:10.311Z,23.41
2018-03-06T10:54:10.551Z,23.48
2018-03-06T10:55:10.827Z,23.47
2018-03-06T10:56:11.016Z,23.47
2018-03-06T10:57:11.259Z,23.47
2018-03-06T10:58:11.500Z,23.46
2018-03-06T10:59:11.739Z,23.43
2018-03-06T11:00:11.982Z,23.46
2018-03-06T11:01:12.229Z,23.44
2018-03-06T11:02:12.467Z,23.43
2018-03-06T11:03:12.701Z,23.47
2018-03-06T11:04:12.947Z,23.50
2018-03-06T11:05:13.192Z,23.44
2018-03-06T11:06:13.428Z,23.44
2018-03-06T11:07:13.665Z,23.43
2018-03-06T11:08:13.944Z,23.43
2018-03-06T11:09:14.163Z,23.41
2018-03-06T11:10:14.387Z,23.47
2018-03-06T11:11:14.631Z,23.54
2018-03-06T11:12:14.872Z,23.46
2018-03-06T11:13:15.105Z,23.48
2018-03-06T11:14:15.354Z,23.48
2018-03-06T11:15:15.588Z,23.46
2018-03-06T11:16:15.828Z,23.50
2018-03-06T11:17:16.069Z,23.54
2018-03-06T11:18:16.319Z,23.46
2018-03-06T11:19:16.562Z,23.46
2018-03-06T11:20:16.797Z,23.44
2018-03-06T11:21:17.039Z,23.43
2018-03-06T11:22:17.288Z,23.48
2018-03-06T11:23:17.527Z,23.46
2018-03-06T11:24:17.770Z,23.50
2018-03-06T11:25:17.994Z,23.50
2018-03-06T11:26:18.254Z,23.48
2018-03-06T11:27:18.485Z,23.51
2018-03-06T11:28:18.729Z,23.55
2018-03-06T11:29:18.966Z,23.47
2018-03-06T11:30:19.207Z,23.44
2018-03-06T11:31:19.447Z,23.44
2018-03-06T11:32:19.713Z,23.50
2018-03-06T11:33:19.935Z,23.58
2018-03-06T11:34:20.170Z,23.47
2018-03-06T11:35:20.409Z,23.55
2018-03-06T11:36:20.650Z,23.51
2018-03-06T11:37:20.889Z,23.55
2018-03-06T11:38:21.132Z,23.46
2018-03-06T11:39:21.375Z,23.46
2018-03-06T11:40:21.614Z,23.48
2018-03-06T11:41:21.855Z,23.44
2018-03-06T11:42:22.165Z,23.47
2018-03-06T11:43:22.335Z,23.50
2018-03-06T11:44:22.575Z,23.43
2018-03-06T11:45:22.816Z,23.50
2018-03-06T11:46:23.063Z,23.48
2018-03-06T11:47:23.308Z,23.48
2018-03-06T11:48:23.544Z,23.51
2018-03-06T11:49:23.778Z,23.61
2018-03-06T11:50:24.020Z,23.47
2018-03-06T11:51:24.258Z,23.55
2018-03-06T11:52:24.499Z,23.48
2018-03-06T11:53:32.070Z,23.48
2018-03-06T11:54:32.099Z,23.47
2018-03-06T11:55:32.363Z,23.50
2018-03-06T11:56:32.616Z,23.54
2018-03-06T11:57:32.873Z,23.43
2018-03-06T11:58:33.132Z,23.50
2018-03-06T11:59:33.393Z,23.50
2018-03-06T12:00:33.665Z,23.47
2018-03-06T12:01:26.791Z,23.41
2018-03-06T12:02:27.027Z,23.48
2018-03-06T12:03:27.275Z,23.48
2018-03-06T12:04:27.509Z,23.54
2018-03-06T12:05:27.757Z,23.51
2018-03-06T12:06:27.996Z,23.54
2018-03-06T12:07:28.238Z,23.50
2018-03-06T12:08:28.637Z,23.51
2018-03-06T12:09:28.716Z,23.50
2018-03-06T12:10:28.959Z,23.50
2018-03-06T12:11:29.204Z,23.48
2018-03-06T12:12:29.435Z,23.48
2018-03-06T12:13:29.935Z,23.47
2018-03-06T12:14:29.920Z,23.48
2018-03-06T12:15:30.158Z,23.46
2018-03-06T12:16:30.401Z,23.54
2018-03-06T12:17:30.649Z,23.46
2018-03-06T12:18:30.893Z,23.43
2018-03-06T12:19:31.128Z,23.48
2018-03-06T12:20:31.370Z,23.48
2018-03-06T12:21:31.612Z,23.46
2018-03-06T12:22:31.851Z,23.50
2018-03-06T12:23:32.092Z,23.55
2018-03-06T12:24:32.334Z,23.54
2018-03-06T12:25:32.579Z,23.55
2018-03-06T12:26:32.812Z,23.51
2018-03-06T12:27:33.053Z,23.48
2018-03-06T12:28:33.293Z,23.51
2018-03-06T12:29:33.532Z,23.46
2018-03-06T12:30:33.772Z,23.50
2018-03-06T12:31:34.025Z,23.47
2018-03-06T12:32:34.266Z,23.50
2018-03-06T12:33:34.501Z,23.48
2018-03-06T12:34:34.741Z,23.48
2018-03-06T12:35:34.982Z,23.47
2018-03-06T12:36:35.220Z,23.55
2018-03-06T12:37:35.463Z,23.59
2018-03-06T12:38:35.708Z,23.51
2018-03-06T12:39:35.947Z,23.55
2018-03-06T12:40:36.199Z,23.51
2018-03-06T12:41:36.418Z,23.48
2018-03-06T12:42:36.660Z,23.50
2018-03-06T12:43:36.902Z,23.55
2018-03-06T12:44:37.136Z,23.51
2018-03-06T12:45:37.380Z,23.56
2018-03-06T12:46:37.616Z,23.48
2018-03-06T12:47:37.857Z,23.58
2018-03-06T12:48:38.096Z,23.54
2018-03-06T12:49:38.342Z,23.58
2018-03-06T12:50:38.587Z,23.55
2018-03-06T12:51:38.821Z,23.48
2018-03-06T12:52:39.061Z,23.50
2018-03-06T12:53:39.303Z,23.56
2018-03-06T12:54:39.546Z,23.61
2018-03-06T12:55:39.784Z,23.48
2018-03-06T12:56:40.029Z,23.51
2018-03-06T12:57:40.278Z,23.58
2018-03-06T12:58:40.519Z,23.51